createdAt,value
2022-12-07T00:02:18.131Z,5.03
2022-12-07T00:07:23.630Z,5.55
2022-12-07T00:12:28.380Z,4.82
2022-12-07T00:17:29.891Z,4.43
2022-12-07T00:22:31.546Z,4.65
2022-12-07T00:27:34.335Z,4.82
2022-12-07T00:32:38.890Z,4.55
2022-12-07T00:37:40.369Z,4.07
2022-12-07T00:42:42.060Z,4.40
2022-12-07T00:47:48.172Z,5.95
2022-12-07T00:52:49.741Z,4.33
2022-12-07T00:57:53.994Z,4.55
2022-12-07T01:02:55.650Z,5.10
2022-12-07T01:08:00.869Z,5.10
2022-12-07T01:13:02.553Z,4.43
2022-12-07T01:18:04.375Z,4.50
2022-12-07T01:23:07.702Z,4.90
2022-12-07T01:28:09.076Z,3.67
2022-12-07T01:33:10.778Z,4.35
2022-12-07T01:38:12.133Z,3.17
2022-12-07T01:43:19.845Z,3.97
2022-12-07T01:48:26.646Z,3.85
2022-12-07T01:53:30.575Z,3.80
2022-12-07T01:58:32.355Z,4.40
2022-12-07T02:03:39.341Z,4.07
2022-12-07T02:13:45.794Z,3.53
2022-12-07T02:18:53.306Z,4.00
2022-12-07T02:24:13.505Z,3.80
2022-12-07T02:29:21.444Z,3.55
2022-12-07T02:34:27.350Z,4.05
2022-12-07T02:39:42.960Z,3.60
2022-12-07T02:44:46.694Z,3.20
2022-12-07T02:49:48.481Z,3.05
2022-12-07T02:54:49.997Z,3.20
2022-12-07T03:00:17.214Z,3.22
2022-12-07T03:05:43.217Z,3.10
2022-12-07T03:11:00.388Z,2.55
2022-12-07T03:16:22.643Z,2.95
2022-12-07T03:21:28.797Z,3.80
2022-12-07T03:26:36.707Z,3.07
2022-12-07T03:31:42.721Z,3.25
2022-12-07T03:36:50.127Z,3.03
2022-12-07T03:41:53.035Z,2.92
2022-12-07T03:47:12.227Z,2.63
2022-12-07T03:52:39.066Z,3.45
2022-12-07T03:57:42.967Z,3.13
2022-12-07T04:02:44.615Z,2.20
2022-12-07T04:07:46.126Z,2.83
2022-12-07T04:12:47.672Z,2.92
2022-12-07T04:17:49.333Z,2.17
2022-12-07T04:22:50.786Z,2.50
2022-12-07T04:27:52.213Z,2.72
2022-12-07T04:32:53.678Z,2.47
2022-12-07T04:37:55.197Z,2.65
2022-12-07T04:42:56.712Z,2.38
2022-12-07T04:47:58.106Z,2.58
2022-12-07T04:52:59.514Z,2.60
2022-12-07T04:58:00.886Z,2.50
2022-12-07T05:03:02.302Z,2.58
2022-12-07T05:08:03.838Z,2.10
2022-12-07T05:13:05.339Z,2.70
2022-12-07T05:18:06.805Z,2.88
2022-12-07T05:23:08.395Z,2.08
2022-12-07T05:28:10.109Z,2.67
2022-12-07T05:33:11.552Z,2.22
2022-12-07T05:38:12.908Z,2.92
2022-12-07T05:43:14.702Z,3.50
2022-12-07T05:48:16.132Z,2.13
2022-12-07T05:53:22.824Z,2.60
2022-12-07T05:58:43.273Z,2.33
2022-12-07T06:03:46.064Z,4.60
2022-12-07T06:08:47.479Z,3.65
2022-12-07T06:13:49.048Z,2.63
2022-12-07T06:18:50.490Z,2.72
2022-12-07T06:23:52.049Z,1.67
2022-12-07T06:28:55.719Z,1.90
2022-12-07T06:34:04.066Z,3.15
2022-12-07T06:39:06.362Z,2.28
2022-12-07T06:44:10.491Z,2.28
2022-12-07T06:49:13.369Z,1.98
2022-12-07T06:54:16.350Z,1.70
2022-12-07T06:59:20.726Z,2.60
2022-12-07T07:04:28.492Z,2.30
2022-12-07T07:09:31.037Z,1.80
2022-12-07T07:14:32.617Z,2.05
2022-12-07T07:19:34.070Z,1.98
2022-12-07T07:24:35.588Z,2.50
2022-12-07T07:29:36.984Z,1.75
2022-12-07T07:34:38.425Z,1.70
2022-12-07T07:39:39.880Z,1.70
2022-12-07T07:44:41.313Z,2.80
2022-12-07T07:49:47.713Z,2.30
2022-12-07T07:59:51.346Z,1.70
2022-12-07T08:04:52.953Z,2.13
2022-12-07T08:09:54.548Z,2.83
2022-12-07T08:14:56.074Z,2.30
2022-12-07T08:19:57.635Z,3.67
2022-12-07T08:24:59.013Z,2.42
2022-12-07T08:30:00.864Z,2.58
2022-12-07T08:35:02.595Z,2.10
2022-12-07T08:40:05.828Z,3.20
2022-12-07T08:45:11.298Z,2.63
2022-12-07T08:50:13.444Z,1.98
2022-12-07T08:55:14.879Z,3.45
2022-12-07T09:00:17.919Z,2.15
2022-12-07T09:05:19.435Z,3.25
2022-12-07T09:10:20.886Z,1.60
2022-12-07T09:15:22.280Z,2.22
2022-12-07T09:20:27.761Z,2.70
2022-12-07T09:25:30.202Z,2.33
2022-12-07T09:30:31.603Z,2.10
2022-12-07T09:35:33.018Z,1.77
2022-12-07T09:40:34.652Z,1.92
2022-12-07T09:45:38.083Z,2.58
2022-12-07T09:50:40.736Z,2.65
2022-12-07T09:55:43.957Z,1.40
2022-12-07T10:00:46.098Z,2.15
2022-12-07T10:05:50.179Z,1.77
2022-12-07T10:10:57.309Z,1.88
2022-12-07T10:16:06.312Z,1.50
2022-12-07T10:21:26.416Z,1.83
2022-12-07T10:26:37.174Z,1.85
2022-12-07T10:31:40.642Z,3.88
2022-12-07T10:36:42.180Z,2.05
2022-12-07T10:42:01.102Z,3.03
2022-12-07T10:47:35.796Z,1.70
2022-12-07T10:52:39.927Z,3.22
2022-12-07T10:57:57.319Z,2.35
2022-12-07T11:03:20.368Z,2.75
2022-12-07T11:08:49.917Z,1.75
2022-12-07T11:14:19.283Z,1.15
2022-12-07T11:20:01.736Z,2.10
2022-12-07T11:25:37.008Z,1.75
2022-12-07T11:30:50.248Z,2.00
2022-12-07T11:36:10.414Z,1.30
2022-12-07T11:41:14.788Z,1.25
2022-12-07T11:46:19.051Z,5.53
2022-12-07T11:51:30.344Z,1.85
2022-12-07T11:56:37.924Z,3.78
2022-12-07T12:01:42.692Z,1.23
2022-12-07T12:06:50.654Z,1.73
2022-12-07T12:18:13.416Z,1.55
2022-12-07T12:23:23.507Z,3.50
2022-12-07T12:28:46.922Z,1.60
2022-12-07T12:33:56.113Z,2.10
2022-12-07T12:39:11.631Z,1.70
2022-12-07T12:44:15.968Z,2.30
2022-12-07T12:49:17.346Z,2.20
2022-12-07T12:54:18.704Z,1.52
2022-12-07T12:59:26.147Z,1.98
2022-12-07T13:04:49.339Z,1.45
2022-12-07T13:09:51.642Z,1.33
2022-12-07T13:15:00.354Z,1.80
2022-12-07T13:20:12.740Z,1.38
2022-12-07T13:25:21.180Z,0.93
2022-12-07T13:30:23.411Z,1.42
2022-12-07T13:35:42.756Z,1.10
2022-12-07T13:41:00.630Z,1.35
2022-12-07T13:46:18.092Z,1.75
2022-12-07T13:51:26.133Z,1.02
2022-12-07T13:56:34.835Z,0.85
2022-12-07T14:01:36.364Z,1.17
2022-12-07T14:06:48.720Z,1.10
2022-12-07T14:11:52.678Z,1.17
2022-12-07T14:17:10.855Z,1.60
2022-12-07T14:22:40.026Z,2.88
2022-12-07T14:27:54.129Z,2.35
2022-12-07T14:32:59.697Z,0.90
2022-12-07T14:38:01.145Z,0.90
2022-12-07T14:43:12.351Z,0.77
2022-12-07T14:53:44.448Z,1.25
2022-12-07T14:58:48.987Z,0.90
2022-12-07T15:03:51.137Z,2.20
2022-12-07T15:08:52.687Z,1.70
2022-12-07T15:14:09.213Z,2.28
2022-12-07T15:19:30.258Z,2.47
2022-12-07T15:24:32.128Z,1.73
2022-12-07T15:29:36.039Z,2.25
2022-12-07T15:34:40.896Z,2.08
2022-12-07T15:39:45.375Z,1.58
2022-12-07T15:45:05.465Z,1.65
2022-12-07T15:50:11.657Z,1.23
2022-12-07T15:55:13.148Z,2.40
2022-12-07T16:00:22.192Z,2.22
2022-12-07T16:05:23.720Z,1.13
2022-12-07T16:10:26.383Z,1.42
2022-12-07T16:15:27.987Z,2.25
2022-12-07T16:20:29.435Z,1.83
2022-12-07T16:25:33.786Z,1.30
2022-12-07T16:30:35.506Z,2.38
2022-12-07T16:35:41.890Z,0.90
2022-12-07T16:40:46.367Z,0.80
2022-12-07T16:45:49.217Z,1.75
2022-12-07T16:50:51.589Z,1.88
2022-12-07T16:55:54.598Z,1.40
2022-12-07T17:00:56.133Z,1.77
2022-12-07T17:06:00.106Z,1.60
2022-12-07T17:11:01.566Z,1.98
2022-12-07T17:16:07.705Z,2.53
2022-12-07T17:21:10.416Z,1.50
2022-12-07T17:26:21.238Z,1.50
2022-12-07T17:31:23.778Z,1.90
2022-12-07T17:36:28.725Z,2.53
2022-12-07T17:41:48.961Z,3.15
2022-12-07T17:46:58.895Z,3.30
2022-12-07T17:52:21.498Z,2.67
2022-12-07T17:57:24.018Z,3.10
2022-12-07T18:02:31.429Z,2.45
2022-12-07T18:07:32.939Z,2.92
2022-12-07T18:12:34.662Z,3.47
2022-12-07T18:17:36.259Z,2.30
2022-12-07T18:22:40.129Z,3.15
2022-12-07T18:27:42.903Z,2.30
2022-12-07T18:32:46.631Z,2.30
2022-12-07T18:37:48.142Z,3.53
2022-12-07T18:42:49.628Z,3.55
2022-12-07T18:47:51.086Z,2.03
2022-12-07T18:52:52.573Z,2.90
2022-12-07T18:57:54.469Z,2.55
2022-12-07T19:02:57.682Z,1.92
2022-12-07T19:07:59.292Z,1.58
2022-12-07T19:13:04.003Z,2.85
2022-12-07T19:18:05.850Z,2.38
2022-12-07T19:23:08.681Z,3.63
2022-12-07T19:28:11.996Z,2.83
2022-12-07T19:33:13.842Z,2.10
2022-12-07T19:38:17.532Z,2.65
2022-12-07T19:43:28.377Z,2.90
2022-12-07T19:48:29.897Z,3.35
2022-12-07T19:53:34.504Z,2.08
2022-12-07T19:58:38.563Z,3.30
2022-12-07T20:03:41.326Z,4.72
2022-12-07T20:08:45.758Z,2.88
2022-12-07T20:13:47.183Z,3.53
2022-12-07T20:18:57.328Z,4.88
2022-12-07T20:24:08.753Z,3.53
2022-12-07T20:29:17.928Z,4.32
2022-12-07T20:34:21.955Z,6.35
2022-12-07T20:39:24.538Z,5.05
2022-12-07T20:44:27.653Z,4.97
2022-12-07T20:49:31.888Z,5.20
2022-12-07T20:54:33.500Z,4.65
2022-12-07T20:59:39.831Z,4.80
2022-12-07T21:04:43.130Z,4.78
2022-12-07T21:09:49.027Z,4.47
2022-12-07T21:14:54.052Z,5.38
2022-12-07T21:19:58.055Z,4.25
2022-12-07T21:25:02.718Z,4.63
2022-12-07T21:30:06.424Z,4.40
2022-12-07T21:35:09.512Z,3.90
2022-12-07T21:40:16.709Z,3.22
2022-12-07T21:45:18.856Z,3.13
2022-12-07T21:50:20.324Z,1.10
2022-12-07T21:55:23.132Z,3.80
2022-12-07T22:00:24.943Z,3.75
2022-12-07T22:05:27.460Z,3.65
2022-12-07T22:10:29.204Z,4.95
2022-12-07T22:15:30.650Z,5.28
2022-12-07T22:20:32.064Z,4.97
2022-12-07T22:25:33.535Z,6.15
2022-12-07T22:30:41.765Z,5.93
2022-12-07T22:35:43.205Z,4.28
2022-12-07T22:40:44.715Z,5.70
2022-12-07T22:46:00.072Z,3.90
2022-12-07T22:51:01.900Z,4.43
2022-12-07T22:56:05.514Z,4.95
2022-12-07T23:01:11.558Z,5.53
2022-12-07T23:06:25.138Z,3.73
2022-12-07T23:11:48.859Z,5.15
2022-12-07T23:16:50.268Z,4.72
2022-12-07T23:21:52.979Z,4.70
2022-12-07T23:26:57.752Z,4.50
2022-12-07T23:31:59.311Z,4.72
2022-12-07T23:37:02.289Z,4.68
2022-12-07T23:42:04.081Z,3.70
2022-12-07T23:47:05.548Z,3.50
2022-12-07T23:52:06.982Z,3.80
2022-12-07T23:57:08.354Z,2.80
